Time;durP1;ratioP1;P1;durP2;ratioP2;P2;SDS_P1;SDS_P2;PMS_P1;PMS_P2;Temp;Humidity;BMP_temperature;BMP_pressure;BME280_temperature;BME280_humidity;BME280_pressure;Samples;Min_cycle;Max_cycle;Signal;HPM_P1;HPM_P2
2023/07/14 00:01:51;;;;;;;0.65;0.65;;;;;;;17.27;100.00;100109.63;6098367;23;20018;-92
2023/07/14 00:04:28;;;;;;;0.32;0.32;;;;;;;17.38;100.00;100132.28;6122493;23;20018;-93
2023/07/14 00:06:54;;;;;;;0.40;0.40;;;;;;;17.35;100.00;100139.59;6099529;23;20044;-92
2023/07/14 00:09:25;;;;;;;0.22;0.22;;;;;;;17.25;100.00;100112.91;6075434;23;20072;-91
2023/07/14 00:11:51;;;;;;;0.08;0.08;;;;;;;17.23;100.00;100129.44;6097852;23;20025;-92
2023/07/14 00:14:17;;;;;;;0.20;0.20;;;;;;;17.19;100.00;100123.22;6075809;23;20013;-92
2023/07/14 00:16:44;;;;;;;0.20;0.20;;;;;;;17.20;100.00;100125.56;6074114;23;20013;-93
2023/07/14 00:19:15;;;;;;;0.40;0.40;;;;;;;17.24;100.00;100136.59;6123064;23;20073;-91
2023/07/14 00:21:42;;;;;;;0.10;0.10;;;;;;;17.23;100.00;100135.03;6123131;23;20092;-92
2023/07/14 00:24:12;;;;;;;0.35;0.32;;;;;;;17.17;100.00;100125.75;6123493;23;20013;-92
2023/07/14 00:26:40;;;;;;;2.58;1.40;;;;;;;17.22;100.00;100133.50;6074904;23;20021;-92
2023/07/14 00:29:36;;;;;;;0.40;0.40;;;;;;;17.22;100.00;100134.28;6099717;23;20144;-92
2023/07/14 00:32:12;;;;;;;1.55;1.17;;;;;;;17.14;100.00;100132.34;6075471;23;20362;-92
2023/07/14 00:34:38;;;;;;;0.35;0.35;;;;;;;16.96;100.00;100104.44;6074883;23;20516;-92
2023/07/14 00:37:03;;;;;;;0.20;0.20;;;;;;;17.11;100.00;100128.44;6099718;23;20101;-92
2023/07/14 00:39:29;;;;;;;0.10;0.10;;;;;;;17.08;100.00;100123.03;6099947;23;20013;-92
2023/07/14 00:41:54;;;;;;;0.50;0.50;;;;;;;17.00;100.00;100105.03;6098848;23;20018;-93
2023/07/14 00:44:20;;;;;;;2.53;1.95;;;;;;;17.04;100.00;100114.03;6124112;23;20013;-92
2023/07/14 00:46:46;;;;;;;0.30;0.30;;;;;;;16.84;100.00;100097.06;6099146;23;20382;-92
2023/07/14 00:49:21;;;;;;;0.65;0.65;;;;;;;17.04;100.00;100122.44;6073228;23;20516;-93
2023/07/14 00:51:47;;;;;;;0.30;0.30;;;;;;;16.97;100.00;100109.56;6097515;23;20073;-93
2023/07/14 00:54:24;;;;;;;0.63;0.45;;;;;;;16.93;100.00;100111.00;6098341;23;20013;-93
2023/07/14 00:56:50;;;;;;;0.65;0.65;;;;;;;17.00;100.00;100110.63;6124223;23;20068;-94
2023/07/14 00:59:17;;;;;;;0.28;0.28;;;;;;;17.15;100.00;100128.25;6124064;23;20060;-93
2023/07/14 01:02:10;;;;;;;0.28;0.28;;;;;;;17.16;100.00;100129.81;6075427;23;20024;-92
2023/07/14 01:04:38;;;;;;;0.28;0.28;;;;;;;17.05;100.00;100124.00;6149295;23;20013;-93
2023/07/14 01:07:04;;;;;;;0.30;0.30;;;;;;;17.02;100.00;100122.94;6099186;23;20013;-94
2023/07/14 01:09:31;;;;;;;0.35;0.35;;;;;;;17.04;100.00;100123.22;6099517;23;20068;-93
2023/07/14 01:11:58;;;;;;;0.15;0.13;;;;;;;17.06;100.00;100125.53;6100489;23;20383;-93
2023/07/14 01:14:28;;;;;;;0.57;0.38;;;;;;;17.12;100.00;100126.41;6098164;23;20014;-92
2023/07/14 01:16:54;;;;;;;0.28;0.22;;;;;;;17.02;100.00;100110.94;6123309;23;20412;-93
2023/07/14 01:19:27;;;;;;;0.30;0.30;;;;;;;17.13;100.00;100119.56;6124014;23;20230;-94
2023/07/14 01:22:03;;;;;;;2.05;1.35;;;;;;;17.23;100.00;100126.63;6098935;23;20212;-93
2023/07/14 01:24:38;;;;;;;4.55;1.20;;;;;;;17.20;100.00;100142.38;6099174;23;20018;-94
2023/07/14 01:27:07;;;;;;;0.50;0.50;;;;;;;17.15;100.00;100133.84;6076926;23;20155;-93
2023/07/14 01:29:33;;;;;;;0.22;0.22;;;;;;;17.10;100.00;100120.53;6074974;23;20018;-93
2023/07/14 01:32:01;;;;;;;0.10;0.10;;;;;;;17.16;100.00;100124.19;6100597;23;20386;-93
2023/07/14 01:34:28;;;;;;;0.60;0.60;;;;;;;17.09;100.00;100113.38;6076731;23;20017;-93
2023/07/14 01:36:58;;;;;;;0.85;0.52;;;;;;;17.12;100.00;100126.41;6077648;23;20422;-93
2023/07/14 01:39:25;;;;;;;0.55;0.55;;;;;;;16.93;100.00;100091.41;6126274;23;20010;-93
2023/07/14 01:41:51;;;;;;;0.30;0.30;;;;;;;17.01;100.00;100092.56;6125578;23;20592;-93
2023/07/14 01:44:19;;;;;;;0.75;0.45;;;;;;;17.16;100.00;100113.00;6100901;23;20009;-93
2023/07/14 01:46:45;;;;;;;1.55;0.68;;;;;;;17.16;100.00;100124.97;6101631;23;20044;-93
2023/07/14 01:49:25;;;;;;;0.25;0.25;;;;;;;17.19;100.00;100118.41;6077481;23;20045;-94
2023/07/14 01:51:53;;;;;;;0.88;0.88;;;;;;;17.24;100.00;100125.38;6101148;23;20410;-93
2023/07/14 01:54:33;;;;;;;0.20;0.20;;;;;;;17.28;100.00;100125.97;6101476;23;20002;-93
2023/07/14 01:57:00;;;;;;;0.88;0.88;;;;;;;17.28;100.00;100131.56;6125962;23;20010;-93
2023/07/14 01:59:29;;;;;;;0.45;0.45;;;;;;;17.22;100.00;100117.47;6101072;23;20018;-94
2023/07/14 02:01:56;;;;;;;0.57;0.57;;;;;;;17.28;100.00;100125.97;6077439;23;20052;-94
2023/07/14 02:04:41;;;;;;;1.55;0.20;;;;;;;17.34;100.00;100123.28;6096044;23;20141;-93
2023/07/14 02:07:12;;;;;;;0.50;0.45;;;;;;;17.30;100.00;100119.88;6096840;23;20101;-92
2023/07/14 02:09:38;;;;;;;0.43;0.43;;;;;;;17.32;100.00;100118.13;6096494;23;20025;-92
2023/07/14 02:12:05;;;;;;;1.35;1.25;;;;;;;17.15;100.00;100094.63;6120783;23;20013;-92
2023/07/14 02:14:45;;;;;;;0.63;0.52;;;;;;;17.33;100.00;100116.13;6119906;23;20100;-93
2023/07/14 02:17:24;;;;;;;0.20;0.20;;;;;;;17.34;100.00;100115.66;6097061;23;20025;-93
2023/07/14 02:19:51;;;;;;;0.47;0.47;;;;;;;17.27;100.00;100118.81;6095834;23;20014;-93
2023/07/14 02:22:16;;;;;;;0.45;0.45;;;;;;;16.99;100.00;100093.03;6072384;23;20085;-93
2023/07/14 02:24:42;;;;;;;0.52;0.52;;;;;;;17.16;100.00;100113.00;6096220;23;20451;-93
2023/07/14 02:27:09;;;;;;;0.38;0.28;;;;;;;16.91;100.00;100097.47;6096395;23;20005;-92
2023/07/14 02:29:35;;;;;;;1.08;0.82;;;;;;;17.00;100.00;100110.63;6120580;23;20069;-94
2023/07/14 02:32:04;;;;;;;0.65;0.65;;;;;;;16.96;100.00;100105.22;6096268;23;20800;-93
2023/07/14 02:34:35;;;;;;;0.13;0.10;;;;;;;17.09;100.00;100104.97;6095968;23;20013;-93
2023/07/14 02:37:04;;;;;;;0.45;0.32;;;;;;;17.12;100.00;100118.00;6096395;23;20018;-94
2023/07/14 02:39:35;;;;;;;1.17;0.40;;;;;;;17.07;100.00;100121.47;6122057;23;20017;-93
2023/07/14 02:42:02;;;;;;;0.10;0.10;;;;;;;16.81;100.00;100087.59;6072214;23;20024;-93
2023/07/14 02:44:32;;;;;;;0.50;0.50;;;;;;;17.00;100.00;100121.84;6072353;23;20197;-93
2023/07/14 02:47:02;;;;;;;0.82;0.50;;;;;;;16.94;100.00;100124.56;6120094;23;20010;-92
2023/07/14 02:49:27;;;;;;;0.93;0.82;;;;;;;17.00;100.00;100133.06;6120504;23;20375;-93
2023/07/14 02:51:54;;;;;;;0.65;0.45;;;;;;;16.92;100.00;100138.25;6071370;23;20096;-93
2023/07/14 02:54:20;;;;;;;0.00;0.00;;;;;;;16.75;100.00;100112.69;6096311;23;20014;-94
2023/07/14 02:56:45;;;;;;;0.85;0.50;;;;;;;16.97;100.00;100148.03;6096552;23;20133;-94
2023/07/14 02:59:13;;;;;;;0.75;0.75;;;;;;;16.65;100.00;100102.81;6120485;23;20014;-94
2023/07/14 03:01:39;;;;;;;0.20;0.20;;;;;;;16.85;100.00;100160.25;6095293;23;20013;-94
2023/07/14 03:04:05;;;;;;;0.82;0.82;;;;;;;16.78;100.00;100139.72;6071188;23;20183;-92
2023/07/14 03:06:31;;;;;;;0.20;0.20;;;;;;;16.75;100.00;100151.13;6120701;23;20017;-92
2023/07/14 03:08:57;;;;;;;0.63;0.63;;;;;;;16.72;100.00;100169.66;6096318;23;20025;-93
2023/07/14 03:11:22;;;;;;;0.20;0.20;;;;;;;16.76;100.00;100175.88;6120787;23;20006;-93
2023/07/14 03:13:48;;;;;;;0.50;0.50;;;;;;;16.75;100.00;100163.09;6095116;23;20021;-93
2023/07/14 03:16:14;;;;;;;0.40;0.40;;;;;;;16.78;100.00;100167.75;6072308;23;20014;-93
2023/07/14 03:18:39;;;;;;;0.32;0.30;;;;;;;16.75;100.00;100145.53;6119641;23;20014;-94
2023/07/14 03:21:05;;;;;;;0.10;0.10;;;;;;;16.66;100.00;100137.94;6096118;23;20056;-93
2023/07/14 03:23:33;;;;;;;0.38;0.38;;;;;;;16.74;100.00;100161.53;6095378;23;20533;-93
2023/07/14 03:26:01;;;;;;;1.10;0.88;;;;;;;16.76;100.00;100147.84;6072154;23;20058;-93
2023/07/14 03:28:30;;;;;;;0.10;0.10;;;;;;;16.72;100.00;100147.25;6072474;23;20044;-93
2023/07/14 03:30:55;;;;;;;0.35;0.35;;;;;;;16.62;100.00;100131.75;6120442;23;20379;-93
2023/07/14 03:33:21;;;;;;;0.35;0.35;;;;;;;16.71;100.00;100151.31;6094044;23;20032;-93
2023/07/14 03:35:47;;;;;;;0.43;0.43;;;;;;;16.73;100.00;100154.41;6095459;23;20010;-94
2023/07/14 03:38:13;;;;;;;0.28;0.28;;;;;;;16.63;100.00;100143.72;6095881;23;20018;-93
2023/07/14 03:40:39;;;;;;;0.45;0.45;;;;;;;16.51;100.00;100130.69;6095957;23;20006;-93
2023/07/14 03:43:04;;;;;;;0.40;0.40;;;;;;;16.45;100.00;100113.78;6120331;23;20045;-94
2023/07/14 03:45:31;;;;;;;0.40;0.38;;;;;;;16.66;100.00;100154.00;6120116;23;20407;-94
2023/07/14 03:47:57;;;;;;;0.25;0.25;;;;;;;16.51;100.00;100137.09;6095460;23;20045;-94
2023/07/14 03:50:22;;;;;;;0.25;0.25;;;;;;;16.55;100.00;100134.88;6095969;23;20009;-94
2023/07/14 03:52:48;;;;;;;0.22;0.22;;;;;;;16.68;100.00;100162.69;6095296;23;20002;-94
2023/07/14 03:55:14;;;;;;;0.20;0.20;;;;;;;16.62;100.00;100161.81;6093807;23;20047;-94
2023/07/14 03:57:39;;;;;;;0.80;0.77;;;;;;;16.67;100.00;100167.50;6070762;23;20010;-94
2023/07/14 04:00:14;;;;;;;0.20;0.20;;;;;;;16.58;100.00;100153.56;6070455;23;20104;-92
2023/07/14 04:02:48;;;;;;;0.25;0.25;;;;;;;16.66;100.00;100174.34;6101285;23;20025;-93
2023/07/14 04:05:14;;;;;;;0.40;0.40;;;;;;;16.66;100.00;100168.75;6100207;23;20104;-93
2023/07/14 04:07:42;;;;;;;0.45;0.45;;;;;;;16.72;100.00;100180.88;6099660;23;20041;-93
2023/07/14 04:10:08;;;;;;;0.40;0.40;;;;;;;16.71;100.00;100184.91;6076417;23;20087;-93
2023/07/14 04:12:35;;;;;;;1.90;0.32;;;;;;;16.70;100.00;100183.34;6100317;23;20024;-93
2023/07/14 04:15:01;;;;;;;1.75;1.38;;;;;;;16.70;100.00;100183.34;6104099;23;20457;-94
2023/07/14 04:17:28;;;;;;;0.43;0.43;;;;;;;16.65;100.00;100181.22;6104787;23;20032;-94
2023/07/14 04:19:54;;;;;;;1.33;1.23;;;;;;;16.58;100.00;100164.75;6124285;23;20013;-93
2023/07/14 04:22:19;;;;;;;0.20;0.20;;;;;;;16.66;100.00;100182.75;6124275;23;20016;-94
2023/07/14 04:24:45;;;;;;;1.08;0.75;;;;;;;16.69;100.00;100176.22;6124398;23;20304;-93
2023/07/14 04:27:12;;;;;;;0.08;0.08;;;;;;;16.53;100.00;100145.00;6099806;23;20473;-93
2023/07/14 04:29:39;;;;;;;0.30;0.30;;;;;;;16.60;100.00;100162.28;6128447;23;20010;-94
2023/07/14 04:32:05;;;;;;;0.57;0.45;;;;;;;16.63;100.00;100166.13;6099105;23;20025;-92
2023/07/14 04:34:30;;;;;;;0.80;0.75;;;;;;;16.65;100.00;100164.44;6100421;23;20006;-93
2023/07/14 04:36:56;;;;;;;0.45;0.45;;;;;;;16.80;100.00;100181.28;6074818;23;20350;-93
2023/07/14 04:39:23;;;;;;;0.55;0.50;;;;;;;16.74;100.00;100175.56;6099954;23;20082;-93
2023/07/14 04:41:50;;;;;;;0.45;0.22;;;;;;;16.78;100.00;100176.16;6099530;23;20381;-93
2023/07/14 04:44:16;;;;;;;0.45;0.45;;;;;;;16.83;100.00;100169.13;6124126;23;20013;-93
2023/07/14 04:46:43;;;;;;;0.10;0.10;;;;;;;16.89;100.00;100175.63;6099198;23;20005;-92
2023/07/14 04:49:10;;;;;;;0.25;0.25;;;;;;;16.86;100.00;100178.63;6075234;23;20052;-93
2023/07/14 04:51:36;;;;;;;0.03;0.03;;;;;;;16.93;100.00;100187.44;6099372;23;20005;-93
2023/07/14 04:54:02;;;;;;;0.65;0.65;;;;;;;17.02;100.00;100192.22;6099936;23;20494;-92
2023/07/14 04:56:29;;;;;;;0.40;0.40;;;;;;;17.12;100.00;100193.69;6124834;23;20009;-93
2023/07/14 04:58:54;;;;;;;0.35;0.35;;;;;;;17.19;100.00;100196.88;6122210;23;20006;-93
2023/07/14 05:01:20;;;;;;;0.52;0.52;;;;;;;16.99;100.00;100167.91;6123334;23;20068;-92
2023/07/14 05:03:45;;;;;;;0.50;0.40;;;;;;;17.27;100.00;100200.09;6122960;23;20014;-93
2023/07/14 05:06:12;;;;;;;0.65;0.65;;;;;;;17.33;100.00;100201.00;6099814;23;20033;-92
2023/07/14 05:08:37;;;;;;;0.00;0.00;;;;;;;17.27;100.00;100191.69;6101127;23;20383;-93
2023/07/14 05:11:03;;;;;;;0.65;0.65;;;;;;;17.33;100.00;100184.19;6127474;23;20116;-93
2023/07/14 05:13:29;;;;;;;0.20;0.20;;;;;;;17.51;100.00;100206.44;6101073;23;20014;-92
2023/07/14 05:15:58;;;;;;;0.20;0.20;;;;;;;17.60;100.00;100212.00;6102209;23;20010;-92
2023/07/14 05:18:24;;;;;;;0.30;0.30;;;;;;;17.64;100.00;100207.00;6135155;23;20346;-91
2023/07/14 05:20:50;;;;;;;0.40;0.40;;;;;;;17.69;100.00;100206.31;6108365;23;20093;-91
2023/07/14 05:23:16;;;;;;;0.47;0.47;;;;;;;17.79;100.00;100212.63;6126396;23;20001;-91
2023/07/14 05:25:42;;;;;;;0.28;0.28;;;;;;;17.96;100.00;100218.53;6126503;23;20300;-92
2023/07/14 05:28:09;;;;;;;0.63;0.63;;;;;;;17.92;100.00;100196.25;6100778;23;20005;-92
2023/07/14 05:30:35;;;;;;;0.30;0.30;;;;;;;18.01;100.00;100217.84;6100476;23;20020;-93
2023/07/14 05:33:01;;;;;;;0.45;0.45;;;;;;;17.99;100.00;100214.78;6124061;23;20123;-92
2023/07/14 05:35:26;;;;;;;0.10;0.10;;;;;;;17.67;100.00;100175.16;6126581;23;20017;-91
2023/07/14 05:37:53;;;;;;;0.57;0.55;;;;;;;17.98;100.00;100194.34;6124575;23;20354;-94
2023/07/14 05:40:19;;;;;;;0.60;0.50;;;;;;;18.01;100.00;100193.38;6124594;23;20056;-91
2023/07/14 05:42:46;;;;;;;0.68;0.30;;;;;;;18.27;100.00;100209.63;6124512;23;20476;-91
2023/07/14 05:45:12;;;;;;;0.32;0.32;;;;;;;18.34;100.00;100193.16;6122917;23;20021;-91
2023/07/14 05:47:42;;;;;;;0.20;0.20;;;;;;;18.63;100.00;100209.97;6125055;23;20499;-91
2023/07/14 05:50:07;;;;;;;0.10;0.10;;;;;;;18.83;100.00;100214.84;6123055;23;20354;-92
2023/07/14 05:52:34;;;;;;;0.52;0.17;;;;;;;19.01;100.00;100216.63;6099966;23;20077;-92
2023/07/14 05:54:59;;;;;;;0.20;0.20;;;;;;;19.10;100.00;100208.06;6094862;23;20021;-91
2023/07/14 05:57:25;;;;;;;0.30;0.30;;;;;;;19.22;100.00;100195.69;6148983;23;20453;-91
2023/07/14 05:59:52;;;;;;;0.08;0.08;;;;;;;19.47;100.00;100202.66;6119424;23;20032;-91
2023/07/14 06:02:18;;;;;;;0.43;0.43;;;;;;;19.55;100.00;100184.84;6097980;23;20032;-92
2023/07/14 06:04:45;;;;;;;0.10;0.10;;;;;;;19.92;100.00;100209.53;6094774;23;20026;-92
2023/07/14 06:07:13;;;;;;;0.68;0.68;;;;;;;20.13;100.00;100207.41;6073474;23;20159;-92
2023/07/14 06:09:39;;;;;;;0.10;0.10;;;;;;;20.34;100.00;100211.75;6070541;23;20029;-92
2023/07/14 06:12:06;;;;;;;0.30;0.20;;;;;;;20.52;100.00;100216.97;6097295;23;20033;-92
2023/07/14 06:14:33;;;;;;;0.00;0.00;;;;;;;20.69;100.00;100208.66;6097444;23;20084;-92
2023/07/14 06:17:02;;;;;;;0.20;0.20;;;;;;;20.86;100.00;100206.72;6122316;23;20492;-91
2023/07/14 06:19:28;;;;;;;0.50;0.50;;;;;;;21.12;100.00;100218.66;6098985;23;20017;-92
2023/07/14 06:21:54;;;;;;;0.30;0.30;;;;;;;21.45;100.00;100218.03;6098660;23;20072;-92
2023/07/14 06:24:20;;;;;;;0.90;0.40;;;;;;;21.61;100.00;100213.72;6074943;23;20065;-92
2023/07/14 06:26:46;;;;;;;0.20;0.20;;;;;;;21.69;100.00;100215.53;6123648;23;20084;-91
2023/07/14 06:29:12;;;;;;;0.40;0.28;;;;;;;21.95;100.00;100226.66;6123267;23;20041;-91
2023/07/14 06:31:38;;;;;;;0.47;0.47;;;;;;;21.68;100.00;100197.03;6099678;23;20009;-91
2023/07/14 06:34:04;;;;;;;0.52;0.52;;;;;;;22.17;100.00;100214.59;6098567;23;20328;-91
2023/07/14 06:36:29;;;;;;;0.22;0.22;;;;;;;22.36;100.00;100220.53;6098076;23;20022;-92
2023/07/14 06:38:55;;;;;;;0.22;0.22;;;;;;;22.39;100.00;100213.84;6123049;23;20006;-93
2023/07/14 06:41:20;;;;;;;0.52;0.35;;;;;;;22.49;100.00;100218.72;6123071;23;20452;-91
2023/07/14 06:43:46;;;;;;;0.50;0.50;;;;;;;22.52;100.00;100194.31;6122868;23;20017;-89
2023/07/14 06:46:12;;;;;;;1.85;0.98;;;;;;;22.62;100.00;100201.22;6148168;23;20043;-89
2023/07/14 06:48:40;;;;;;;0.50;0.50;;;;;;;22.69;100.00;100207.16;6073301;23;20009;-89
2023/07/14 06:51:06;;;;;;;0.25;0.25;;;;;;;22.69;100.00;100178.09;6124447;23;20450;-89
2023/07/14 06:53:31;;;;;;;0.10;0.10;;;;;;;22.85;100.00;100173.72;6150204;23;20018;-89
2023/07/14 06:55:57;;;;;;;0.20;0.20;;;;;;;23.29;100.00;100215.22;6149327;23;20466;-89
2023/07/14 06:58:25;;;;;;;0.38;0.38;;;;;;;23.29;100.00;100204.66;6123264;23;20024;-90
2023/07/14 07:00:50;;;;;;;0.25;0.25;;;;;;;23.54;100.00;100219.75;6100002;23;20001;-89
2023/07/14 07:03:16;;;;;;;0.10;0.10;;;;;;;23.64;100.00;100204.00;6074691;23;20036;-89
2023/07/14 07:05:43;;;;;;;0.85;0.50;;;;;;;23.86;100.00;100214.44;6098878;23;20021;-89
2023/07/14 07:08:14;;;;;;;3.60;0.38;;;;;;;24.00;100.00;100182.91;6099458;23;20013;-89
2023/07/14 07:10:41;;;;;;;0.70;0.63;;;;;;;24.32;100.00;100205.09;6123693;23;20049;-89
2023/07/14 07:13:06;;;;;;;0.38;0.30;;;;;;;24.36;100.00;100191.38;6075269;23;20021;-89
2023/07/14 07:15:32;;;;;;;0.68;0.68;;;;;;;24.31;97.23;100197.88;6149541;23;20035;-90
2023/07/14 07:17:57;;;;;;;0.57;0.55;;;;;;;24.42;95.91;100206.31;6098308;23;20529;-89
2023/07/14 07:20:23;;;;;;;0.98;0.77;;;;;;;24.35;97.29;100204.03;6100818;23;20010;-90
2023/07/14 07:22:48;;;;;;;0.30;0.20;;;;;;;24.51;94.91;100208.78;6123941;23;20039;-89
2023/07/14 07:25:16;;;;;;;0.45;0.30;;;;;;;24.76;100.00;100212.41;6075138;23;20017;-89
2023/07/14 07:27:42;;;;;;;0.43;0.43;;;;;;;24.84;99.27;100216.19;6123320;23;20009;-90
2023/07/14 07:30:09;;;;;;;0.43;0.43;;;;;;;25.16;96.03;100225.66;6098433;23;20391;-90
2023/07/14 07:32:35;;;;;;;1.45;0.55;;;;;;;25.20;85.82;100211.16;6123981;23;20018;-89
2023/07/14 07:35:01;;;;;;;1.08;1.00;;;;;;;25.46;85.90;100225.56;6098856;23;20041;-89
2023/07/14 07:37:27;;;;;;;0.45;0.45;;;;;;;25.34;81.24;100213.59;6149377;23;20048;-89
2023/07/14 07:39:56;;;;;;;0.30;0.30;;;;;;;25.32;85.61;100224.69;6123553;23;20040;-89
2023/07/14 07:42:22;;;;;;;1.75;1.20;;;;;;;25.51;84.73;100219.06;6099009;23;20091;-89
2023/07/14 07:44:48;;;;;;;0.63;0.50;;;;;;;25.79;82.25;100233.66;6122791;23;20398;-89
2023/07/14 07:47:14;;;;;;;0.20;0.20;;;;;;;25.76;79.95;100223.34;6150633;23;20025;-89
2023/07/14 07:49:39;;;;;;;0.85;0.73;;;;;;;25.91;75.92;100222.91;6121428;23;20013;-89
2023/07/14 07:52:06;;;;;;;0.40;0.40;;;;;;;26.06;77.40;100222.41;6098928;23;20049;-89
2023/07/14 07:54:32;;;;;;;1.20;1.15;;;;;;;26.17;71.26;100216.53;6099767;23;20010;-89
2023/07/14 07:56:57;;;;;;;0.38;0.38;;;;;;;26.40;78.54;100210.00;6099073;23;20170;-89
2023/07/14 07:59:23;;;;;;;0.10;0.10;;;;;;;26.33;71.12;100224.84;6123298;23;20010;-89
2023/07/14 08:01:48;;;;;;;0.43;0.40;;;;;;;26.49;74.74;100231.56;6150732;23;20084;-89
2023/07/14 08:04:16;;;;;;;0.50;0.50;;;;;;;26.70;73.42;100234.56;6149230;23;20018;-89
2023/07/14 08:06:42;;;;;;;0.55;0.50;;;;;;;26.95;70.41;100215.25;6099613;23;20028;-89
2023/07/14 08:09:09;;;;;;;0.50;0.50;;;;;;;27.26;69.41;100211.50;6149941;23;20362;-89
2023/07/14 08:11:35;;;;;;;0.52;0.38;;;;;;;27.46;65.94;100222.22;6124308;23;20017;-89
2023/07/14 08:14:02;;;;;;;0.60;0.60;;;;;;;27.47;62.73;100209.53;6123280;23;20013;-89
2023/07/14 08:16:31;;;;;;;0.52;0.40;;;;;;;27.47;59.57;100218.06;6124880;23;20099;-88
2023/07/14 08:18:57;;;;;;;0.45;0.45;;;;;;;27.66;65.89;100215.84;6123379;23;20021;-88
2023/07/14 08:21:22;;;;;;;3.20;1.35;;;;;;;27.72;62.56;100224.28;6099236;23;20103;-88
2023/07/14 08:23:48;;;;;;;0.50;0.50;;;;;;;27.86;56.44;100210.75;6123550;23;20543;-89
2023/07/14 08:26:14;;;;;;;0.32;0.32;;;;;;;27.63;60.15;100224.72;6124281;23;20088;-89
2023/07/14 08:28:40;;;;;;;0.22;0.22;;;;;;;27.46;60.02;100219.34;6123274;23;20013;-89
2023/07/14 08:31:09;;;;;;;15.80;1.17;;;;;;;27.75;60.31;100223.94;6150383;23;20013;-89
2023/07/14 08:33:35;;;;;;;0.40;0.38;;;;;;;27.65;56.92;100237.13;6123214;23;20017;-89
2023/07/14 08:36:03;;;;;;;0.45;0.43;;;;;;;27.89;56.10;100232.44;6100021;23;20068;-89
2023/07/14 08:38:30;;;;;;;0.85;0.85;;;;;;;27.98;55.83;100212.03;6098164;23;20426;-89
2023/07/14 08:41:03;;;;;;;3.30;1.75;;;;;;;28.10;54.63;100233.28;6123469;23;20013;-89
2023/07/14 08:43:56;;;;;;;4.30;1.17;;;;;;;28.11;54.41;100231.94;6123531;23;20060;-88
2023/07/14 08:47:00;;;;;;;0.57;0.50;;;;;;;28.45;50.48;100234.75;6083378;23;20375;-89
2023/07/14 08:49:36;;;;;;;0.47;0.47;;;;;;;28.45;52.02;100229.81;6029673;23;20599;-89
2023/07/14 08:52:15;;;;;;;0.60;0.35;;;;;;;28.47;50.92;100221.44;6007256;23;20027;-89
2023/07/14 08:54:45;;;;;;;0.47;0.47;;;;;;;28.58;52.10;100229.75;6057181;23;20025;-88
2023/07/14 08:57:16;;;;;;;0.68;0.43;;;;;;;28.86;51.23;100236.84;6124672;23;20097;-88
2023/07/14 08:59:45;;;;;;;1.23;0.87;;;;;;;28.99;49.24;100231.03;6099134;23;20025;-88
2023/07/14 09:02:25;;;;;;;0.90;0.82;;;;;;;29.14;50.85;100222.56;6124165;23;20443;-89
2023/07/14 09:04:59;;;;;;;0.93;0.73;;;;;;;29.31;48.55;100231.44;6122375;23;20096;-89
2023/07/14 09:07:25;;;;;;;1.13;1.02;;;;;;;29.08;49.47;100230.50;6124693;23;20018;-88
2023/07/14 09:09:50;;;;;;;0.50;0.50;;;;;;;29.28;48.42;100221.13;6123672;23;20025;-89
2023/07/14 09:12:22;;;;;;;0.43;0.43;;;;;;;29.28;47.91;100232.53;6098983;23;20018;-89
2023/07/14 09:15:00;;;;;;;0.65;0.65;;;;;;;29.40;48.62;100221.59;6098735;23;20017;-88
2023/07/14 09:17:29;;;;;;;0.60;0.60;;;;;;;29.48;47.00;100222.38;6124478;23;20009;-88
2023/07/14 09:20:28;;;;;;;0.55;0.47;;;;;;;29.13;47.06;100221.00;6123012;23;20343;-89
2023/07/14 09:23:16;;;;;;;0.50;0.50;;;;;;;29.36;47.31;100216.22;6149147;23;20017;-89
2023/07/14 09:25:55;;;;;;;0.30;0.30;;;;;;;29.55;48.57;100222.41;6123657;23;20017;-88
2023/07/14 09:28:30;;;;;;;0.55;0.55;;;;;;;29.74;48.26;100216.38;6123268;23;20100;-88
2023/07/14 09:30:58;;;;;;;0.82;0.82;;;;;;;29.86;47.55;100220.44;6149600;23;20091;-88
2023/07/14 09:33:26;;;;;;;0.60;0.60;;;;;;;30.03;45.95;100214.97;6098806;23;20028;-88
2023/07/14 09:35:51;;;;;;;1.02;0.88;;;;;;;29.97;48.17;100207.88;6122781;23;20073;-87
2023/07/14 09:38:24;;;;;;;0.45;0.45;;;;;;;30.20;47.63;100214.41;6123379;23;20155;-89
2023/07/14 09:40:55;;;;;;;0.55;0.55;;;;;;;30.42;49.42;100213.66;6098788;23;20037;-89
2023/07/14 09:43:21;;;;;;;0.40;0.40;;;;;;;30.48;47.20;100217.16;6075059;23;20093;-88
2023/07/14 09:45:46;;;;;;;0.55;0.55;;;;;;;30.70;46.78;100197.66;6123553;23;20033;-89
2023/07/14 09:48:22;;;;;;;0.75;0.63;;;;;;;30.78;45.50;100204.13;6122908;23;20595;-89
2023/07/14 09:51:11;;;;;;;0.60;0.60;;;;;;;30.37;46.23;100196.69;6099548;23;20533;-88
2023/07/14 09:53:39;;;;;;;0.22;0.22;;;;;;;30.58;48.03;100202.22;6110960;23;20017;-89
2023/07/14 09:56:16;;;;;;;0.40;0.40;;;;;;;30.61;45.17;100203.97;6124963;23;20443;-89
2023/07/14 09:58:52;;;;;;;0.98;0.63;;;;;;;30.61;45.63;100207.59;6124487;23;20025;-89
2023/07/14 10:01:18;;;;;;;0.50;0.50;;;;;;;30.73;45.38;100202.25;6099926;23;21477;-88
2023/07/14 10:03:57;;;;;;;1.10;0.80;;;;;;;30.83;46.40;100189.63;6099703;23;20010;-89
2023/07/14 10:06:26;;;;;;;0.65;0.65;;;;;;;30.94;45.71;100188.44;6125277;23;20018;-88
2023/07/14 10:08:59;;;;;;;0.40;0.40;;;;;;;31.11;43.64;100191.50;6101022;23;20013;-88
2023/07/14 10:11:27;;;;;;;0.38;0.38;;;;;;;31.23;43.68;100195.47;6125760;23;20041;-88
2023/07/14 10:13:59;;;;;;;1.30;1.10;;;;;;;30.92;43.34;100194.00;6124724;23;20397;-89
2023/07/14 10:16:31;;;;;;;0.40;0.40;;;;;;;30.85;44.39;100189.06;6125263;23;20045;-89
2023/07/14 10:19:18;;;;;;;;;;;;;;;31.19;44.49;100188.59;6125946;23;20021;-88
2023/07/14 10:21:57;;;;;;;0.57;0.57;;;;;;;31.48;42.56;100175.50;6124746;23;20265;-88
2023/07/14 10:24:24;;;;;;;0.50;0.50;;;;;;;31.85;42.63;100170.94;6150506;23;20014;-88
2023/07/14 10:27:01;;;;;;;0.55;0.55;;;;;;;32.11;42.99;100167.53;6150328;23;20008;-89
2023/07/14 10:29:27;;;;;;;0.45;0.45;;;;;;;32.17;43.07;100176.69;6100947;23;20470;-88
2023/07/14 10:32:24;;;;;;;0.50;0.50;;;;;;;32.21;41.43;100174.16;6124667;23;20021;-89
2023/07/14 10:35:02;;;;;;;0.65;0.65;;;;;;;31.66;40.74;100174.31;6123094;23;20020;-89
2023/07/14 10:37:33;;;;;;;0.45;0.45;;;;;;;31.58;43.86;100167.09;6120219;23;20029;-88
2023/07/14 10:40:11;;;;;;;0.65;0.65;;;;;;;31.76;41.91;100165.81;6122585;23;20013;-88
2023/07/14 10:42:38;;;;;;;0.90;0.90;;;;;;;31.39;39.85;100156.81;6122903;23;20045;-88
2023/07/14 10:45:04;;;;;;;0.70;0.70;;;;;;;31.60;40.81;100158.66;6096314;23;20009;-88
2023/07/14 10:47:43;;;;;;;1.08;0.77;;;;;;;31.56;40.35;100158.28;6097316;23;20017;-88
2023/07/14 10:50:19;;;;;;;0.80;0.77;;;;;;;31.58;41.14;100149.88;6121720;23;20307;-88
2023/07/14 10:52:51;;;;;;;0.80;0.80;;;;;;;31.72;40.42;100154.00;6097322;23;20394;-88
2023/07/14 10:55:20;;;;;;;1.45;1.02;;;;;;;32.05;40.25;100151.88;6098375;23;20017;-88
2023/07/14 10:57:47;;;;;;;1.80;1.70;;;;;;;32.43;41.55;100148.72;6122186;23;20017;-88
2023/07/14 11:00:31;;;;;;;0.73;0.70;;;;;;;32.55;38.86;100158.38;6121146;23;20025;-88
2023/07/14 11:03:17;;;;;;;1.05;0.95;;;;;;;32.47;41.06;100146.97;6091759;23;20032;-88
2023/07/14 11:05:52;;;;;;;0.88;0.85;;;;;;;32.56;39.80;100143.41;6095363;23;20386;-88
2023/07/14 11:08:18;;;;;;;0.80;0.80;;;;;;;32.57;41.20;100144.19;6120471;23;20367;-89
2023/07/14 11:11:11;;;;;;;0.43;0.43;;;;;;;32.75;40.29;100142.88;6095241;23;20014;-88
2023/07/14 11:14:02;;;;;;;0.60;0.60;;;;;;;33.20;41.05;100142.38;6094351;23;20022;-88
2023/07/14 11:16:39;;;;;;;1.40;1.15;;;;;;;32.83;40.50;100132.09;6119351;23;20041;-89
2023/07/14 11:19:18;;;;;;;0.43;0.40;;;;;;;31.74;41.18;100136.97;6118382;23;20010;-88
2023/07/14 11:22:02;;;;;;;0.77;0.63;;;;;;;31.73;40.99;100123.97;6119915;23;20347;-89
2023/07/14 11:24:35;;;;;;;1.05;0.95;;;;;;;31.08;42.67;100126.75;6119479;23;20014;-88
2023/07/14 11:27:29;;;;;;;0.65;0.65;;;;;;;30.68;43.49;100129.53;6119572;23;20018;-88
2023/07/14 11:29:58;;;;;;;0.45;0.45;;;;;;;30.95;44.66;100115.50;6120157;23;20014;-88